createdAt,value
2023-03-14T00:01:34.474Z,17.80
2023-03-14T00:04:01.349Z,17.33
2023-03-14T00:06:34.525Z,16.05
2023-03-14T00:10:04.224Z,16.02
2023-03-14T00:20:23.488Z,16.65
2023-03-14T00:22:56.504Z,17.48
2023-03-14T00:25:29.483Z,18.20
2023-03-14T00:27:56.331Z,15.90
2023-03-14T00:30:29.515Z,17.67
2023-03-14T00:32:56.416Z,16.92
2023-03-14T00:35:23.475Z,16.73
2023-03-14T00:37:56.506Z,15.55
2023-03-14T00:40:29.534Z,14.40
2023-03-14T00:42:56.463Z,14.43
2023-03-14T00:45:29.523Z,12.57
2023-03-14T00:47:56.457Z,12.98
2023-03-14T00:50:23.406Z,13.55
2023-03-14T00:52:56.535Z,12.45
2023-03-14T00:55:29.523Z,11.98
2023-03-14T00:57:56.441Z,11.55
2023-03-14T01:00:30.544Z,10.27
2023-03-14T01:03:03.542Z,9.93
2023-03-14T01:05:30.573Z,9.60
2023-03-14T01:08:04.531Z,8.93
2023-03-14T01:10:31.562Z,9.35
2023-03-14T01:13:04.565Z,10.00
2023-03-14T01:15:33.700Z,11.98
2023-03-14T01:18:07.554Z,12.50
2023-03-14T01:20:34.427Z,13.50
2023-03-14T01:23:07.545Z,13.73
2023-03-14T01:25:34.469Z,15.63
2023-03-14T01:28:07.575Z,14.63
2023-03-14T01:30:34.480Z,14.75
2023-03-14T01:33:01.349Z,15.63
2023-03-14T01:35:34.553Z,14.73
2023-03-14T01:38:07.561Z,13.35
2023-03-14T01:40:40.590Z,12.15
2023-03-14T01:43:15.417Z,11.30
2023-03-14T01:46:13.652Z,10.48
2023-03-14T01:48:45.983Z,11.80
2023-03-14T01:51:37.621Z,10.35
2023-03-14T01:54:31.556Z,10.30
2023-03-14T01:57:29.537Z,8.75
2023-03-14T02:00:10.546Z,10.02
2023-03-14T02:02:37.470Z,9.30
2023-03-14T02:05:05.264Z,9.35
2023-03-14T02:07:43.591Z,9.63
2023-03-14T02:10:17.580Z,9.60
2023-03-14T02:12:44.462Z,9.75
2023-03-14T02:15:17.536Z,9.43
2023-03-14T02:17:44.566Z,9.65
2023-03-14T02:20:23.583Z,10.05
2023-03-14T02:22:50.482Z,9.65
2023-03-14T02:25:36.529Z,9.98
2023-03-14T02:28:03.528Z,9.68
2023-03-14T02:30:37.560Z,9.90
2023-03-14T02:33:07.237Z,9.57
2023-03-14T02:36:05.640Z,8.60
2023-03-14T02:38:47.289Z,8.65
2023-03-14T02:41:20.559Z,7.95
2023-03-14T02:43:47.561Z,8.68
2023-03-14T02:46:17.777Z,9.15
2023-03-14T02:49:12.546Z,10.05
2023-03-14T02:51:39.387Z,9.93
2023-03-14T02:54:12.601Z,11.35
2023-03-14T02:56:39.507Z,10.38
2023-03-14T02:59:13.616Z,9.32
2023-03-14T03:01:40.678Z,9.13
2023-03-14T03:04:14.583Z,9.23
2023-03-14T03:06:47.617Z,9.75
2023-03-14T03:09:14.473Z,9.50
2023-03-14T03:11:47.610Z,8.00
2023-03-14T03:14:14.554Z,8.05
2023-03-14T03:16:47.646Z,7.10
2023-03-14T03:19:21.671Z,6.85
2023-03-14T03:21:54.641Z,6.80
2023-03-14T03:24:21.583Z,6.10
2023-03-14T03:26:54.646Z,5.93
2023-03-14T03:29:21.663Z,5.47
2023-03-14T03:31:54.636Z,5.95
2023-03-14T03:34:27.590Z,5.22
2023-03-14T03:36:58.114Z,5.30
2023-03-14T03:39:25.050Z,5.35
2023-03-14T03:41:58.604Z,5.10
2023-03-14T03:44:31.655Z,5.50
2023-03-14T03:46:58.611Z,6.65
2023-03-14T03:49:34.654Z,6.18
2023-03-14T03:52:01.572Z,5.90
2023-03-14T03:54:28.455Z,5.75
2023-03-14T03:57:01.628Z,5.47
2023-03-14T03:59:28.495Z,5.22
2023-03-14T04:01:55.387Z,5.57
2023-03-14T04:04:28.610Z,5.43
2023-03-14T04:07:02.633Z,5.82
2023-03-14T04:09:35.662Z,5.93
2023-03-14T04:12:02.584Z,5.38
2023-03-14T04:14:29.577Z,6.55
2023-03-14T04:17:02.747Z,6.40
2023-03-14T04:19:29.674Z,6.75
2023-03-14T04:22:02.635Z,6.43
2023-03-14T04:24:29.630Z,8.57
2023-03-14T04:27:02.670Z,8.00
2023-03-14T04:29:29.599Z,8.05
2023-03-14T04:32:02.682Z,7.72
2023-03-14T04:34:29.601Z,6.82
2023-03-14T04:37:02.686Z,7.50
2023-03-14T04:39:36.322Z,6.43
2023-03-14T04:42:09.637Z,6.45
2023-03-14T04:44:36.570Z,6.63
2023-03-14T04:47:09.652Z,6.40
2023-03-14T04:49:36.550Z,6.10
2023-03-14T04:52:10.648Z,6.43
2023-03-14T04:54:37.570Z,5.70
2023-03-14T04:57:04.502Z,6.20
2023-03-14T04:59:37.644Z,6.45
2023-03-14T05:02:04.568Z,6.50
2023-03-14T05:04:37.625Z,5.40
2023-03-14T05:07:04.465Z,5.63
2023-03-14T05:09:37.648Z,5.65
2023-03-14T05:12:04.624Z,6.13
2023-03-14T05:14:37.692Z,6.40
2023-03-14T05:17:04.633Z,16.40
2023-03-14T05:19:31.599Z,8.38
2023-03-14T05:22:04.628Z,6.72
2023-03-14T05:24:45.663Z,6.32
2023-03-14T05:27:19.282Z,6.28
2023-03-14T05:29:52.655Z,7.28
2023-03-14T05:32:19.582Z,6.47
2023-03-14T05:34:52.685Z,5.68
2023-03-14T05:37:20.174Z,6.63
2023-03-14T05:39:47.140Z,5.85
2023-03-14T05:42:20.658Z,6.07
2023-03-14T05:44:47.521Z,5.97
2023-03-14T05:47:20.687Z,6.28
2023-03-14T05:49:53.632Z,6.30
2023-03-14T05:52:20.459Z,6.43
2023-03-14T05:54:53.805Z,6.25
2023-03-14T05:57:26.692Z,7.10
2023-03-14T05:59:59.727Z,6.80
2023-03-14T06:02:26.657Z,5.97
2023-03-14T06:04:53.995Z,6.90
2023-03-14T06:07:27.687Z,7.50
2023-03-14T06:09:54.558Z,6.85
2023-03-14T06:12:27.699Z,8.00
2023-03-14T06:14:54.808Z,7.20
2023-03-14T06:17:28.693Z,6.45
2023-03-14T06:19:55.540Z,9.90
2023-03-14T06:22:22.453Z,6.97
2023-03-14T06:24:55.674Z,6.28
2023-03-14T06:27:22.538Z,5.82
2023-03-14T06:29:55.700Z,6.07
2023-03-14T06:32:22.583Z,6.40
2023-03-14T06:34:55.688Z,7.63
2023-03-14T06:37:22.622Z,6.65
2023-03-14T06:39:55.712Z,6.20
2023-03-14T06:42:24.251Z,6.47
2023-03-14T06:44:53.023Z,6.55
2023-03-14T06:47:29.684Z,6.20
2023-03-14T06:50:02.709Z,7.05
2023-03-14T06:52:29.624Z,7.35
2023-03-14T06:55:02.697Z,7.22
2023-03-14T06:57:29.556Z,8.02
2023-03-14T07:00:02.732Z,7.63
2023-03-14T07:02:42.640Z,7.15
2023-03-14T07:05:10.304Z,7.03
2023-03-14T07:07:43.708Z,6.57
2023-03-14T07:10:11.363Z,6.68
2023-03-14T07:12:44.756Z,6.38
2023-03-14T07:15:18.515Z,7.13
2023-03-14T07:17:52.726Z,7.05
2023-03-14T07:20:19.688Z,7.10
2023-03-14T07:22:55.746Z,6.88
2023-03-14T07:25:22.624Z,6.80
2023-03-14T07:27:49.499Z,7.15
2023-03-14T07:30:22.717Z,8.63
2023-03-14T07:32:49.702Z,11.07
2023-03-14T07:35:22.753Z,9.90
2023-03-14T07:37:49.680Z,9.73
2023-03-14T07:40:16.697Z,11.80
2023-03-14T07:42:50.742Z,7.00
2023-03-14T07:45:18.251Z,8.27
2023-03-14T07:47:51.724Z,7.05
2023-03-14T07:50:25.792Z,6.10
2023-03-14T07:52:52.659Z,6.03
2023-03-14T07:55:25.766Z,5.55
2023-03-14T07:57:58.732Z,5.30
2023-03-14T08:00:25.647Z,6.05
2023-03-14T08:02:58.786Z,6.60
2023-03-14T08:05:25.806Z,6.85
2023-03-14T08:07:58.801Z,5.80
2023-03-14T08:10:25.696Z,6.53
2023-03-14T08:12:55.277Z,5.53
2023-03-14T08:15:28.767Z,5.65
2023-03-14T08:17:56.112Z,4.85
2023-03-14T08:20:32.823Z,4.45
2023-03-14T08:23:01.026Z,4.32
2023-03-14T08:25:34.832Z,4.60
2023-03-14T08:28:01.784Z,4.00
2023-03-14T08:30:34.857Z,4.32
2023-03-14T08:33:08.870Z,3.58
2023-03-14T08:35:42.817Z,3.55
2023-03-14T08:38:09.731Z,3.88
2023-03-14T08:40:42.832Z,3.33
2023-03-14T08:43:09.692Z,3.15
2023-03-14T08:45:36.581Z,3.13
2023-03-14T08:48:09.862Z,2.58
2023-03-14T08:50:36.772Z,2.53
2023-03-14T08:53:09.875Z,2.60
2023-03-14T08:55:37.081Z,1.95
2023-03-14T08:58:10.787Z,2.08
2023-03-14T09:00:43.850Z,2.22
2023-03-14T09:03:10.893Z,2.85
2023-03-14T09:05:43.852Z,2.05
2023-03-14T09:08:10.699Z,1.55
2023-03-14T09:10:44.803Z,2.42
2023-03-14T09:13:17.799Z,2.67
2023-03-14T09:15:44.697Z,2.58
2023-03-14T09:18:17.777Z,2.45
2023-03-14T09:20:44.713Z,2.50
2023-03-14T09:23:17.812Z,2.45
2023-03-14T09:25:44.705Z,2.13
2023-03-14T09:28:11.568Z,2.17
2023-03-14T09:30:44.848Z,2.00
2023-03-14T09:33:17.808Z,1.98
2023-03-14T09:35:44.712Z,2.20
2023-03-14T09:38:17.871Z,1.90
2023-03-14T09:40:50.900Z,1.70
2023-03-14T09:43:17.788Z,1.50
2023-03-14T09:45:45.058Z,1.83
2023-03-14T09:48:26.849Z,1.08
2023-03-14T09:50:56.070Z,1.20
2023-03-14T09:53:44.885Z,1.50
2023-03-14T09:56:27.295Z,1.60
2023-03-14T09:59:09.898Z,1.52
2023-03-14T10:01:36.917Z,1.83
2023-03-14T10:04:18.888Z,1.42
2023-03-14T10:06:45.884Z,1.48
2023-03-14T10:09:25.866Z,1.30
2023-03-14T10:11:59.209Z,1.40
2023-03-14T10:14:43.802Z,1.20
2023-03-14T10:17:19.896Z,1.58
2023-03-14T10:19:54.117Z,1.65
2023-03-14T10:22:27.857Z,1.58
2023-03-14T10:25:06.301Z,1.70
2023-03-14T10:27:41.879Z,1.35
2023-03-14T10:30:28.140Z,1.50
2023-03-14T10:33:01.909Z,1.52
2023-03-14T10:35:28.929Z,1.40
2023-03-14T10:38:07.912Z,1.40
2023-03-14T10:40:39.605Z,1.40
2023-03-14T10:43:18.887Z,1.60
2023-03-14T10:45:45.813Z,1.63
2023-03-14T10:48:21.852Z,1.88
2023-03-14T10:51:19.047Z,1.45
2023-03-14T10:54:07.898Z,1.33
2023-03-14T10:56:43.973Z,1.50
2023-03-14T10:59:16.919Z,1.38
2023-03-14T11:01:59.848Z,1.40
2023-03-14T11:04:51.094Z,1.35
2023-03-14T11:07:30.928Z,2.00
2023-03-14T11:10:32.719Z,1.63
2023-03-14T11:13:36.886Z,1.63
2023-03-14T11:16:30.873Z,1.60
2023-03-14T11:19:28.968Z,1.80
2023-03-14T11:22:38.355Z,1.65
2023-03-14T11:25:11.882Z,1.85
2023-03-14T11:28:12.914Z,1.83
2023-03-14T11:31:05.419Z,1.70
2023-03-14T11:33:54.909Z,1.60
2023-03-14T11:36:34.958Z,1.60
2023-03-14T11:39:01.911Z,1.60
2023-03-14T11:41:40.963Z,1.77
2023-03-14T11:44:25.202Z,1.70
2023-03-14T11:47:00.719Z,1.75
2023-03-14T11:49:55.969Z,1.55
2023-03-14T11:52:31.932Z,1.60
2023-03-14T11:55:14.590Z,1.73
2023-03-14T11:57:47.900Z,2.10
2023-03-14T12:00:23.233Z,2.10
2023-03-14T12:03:14.918Z,2.20
2023-03-14T12:05:48.784Z,2.20
2023-03-14T12:08:46.930Z,2.10
2023-03-14T12:11:47.290Z,2.10
2023-03-14T12:14:30.011Z,1.70
2023-03-14T12:17:22.890Z,1.60
2023-03-14T12:20:13.942Z,1.90
2023-03-14T12:22:53.521Z,1.98
2023-03-14T12:25:29.958Z,1.85
2023-03-14T12:27:56.833Z,1.80
2023-03-14T12:30:32.951Z,1.92
2023-03-14T12:33:24.928Z,1.80
2023-03-14T12:35:53.198Z,2.13
2023-03-14T12:39:04.821Z,1.83
2023-03-14T12:41:43.788Z,2.45
2023-03-14T12:44:36.912Z,2.50
2023-03-14T12:47:21.885Z,2.58
2023-03-14T12:50:00.920Z,2.35
2023-03-14T12:52:44.324Z,2.30
2023-03-14T12:55:26.016Z,2.17
2023-03-14T12:58:06.501Z,2.20
2023-03-14T13:00:47.983Z,2.33
2023-03-14T13:03:21.309Z,1.90
2023-03-14T13:06:10.973Z,1.90
2023-03-14T13:08:51.975Z,2.22
2023-03-14T13:11:21.929Z,2.38
2023-03-14T13:13:58.982Z,2.05
2023-03-14T13:16:26.033Z,1.65
2023-03-14T13:19:09.941Z,1.92
2023-03-14T13:21:37.140Z,1.80
2023-03-14T13:24:13.955Z,2.05
2023-03-14T13:26:43.186Z,2.10
2023-03-14T13:29:32.013Z,1.80
2023-03-14T13:32:01.498Z,1.88
2023-03-14T13:34:40.088Z,1.70
2023-03-14T13:37:17.752Z,1.83
2023-03-14T13:39:51.052Z,1.75
2023-03-14T13:42:25.029Z,1.80
2023-03-14T13:44:52.491Z,2.40
2023-03-14T13:47:28.135Z,2.00
2023-03-14T13:49:55.052Z,2.05
2023-03-14T13:52:39.016Z,1.70
2023-03-14T13:55:07.586Z,1.90
2023-03-14T13:57:55.036Z,2.10
2023-03-14T14:00:27.299Z,2.35
2023-03-14T14:03:02.044Z,2.28
2023-03-14T14:05:36.028Z,2.92
2023-03-14T14:08:11.033Z,2.53
2023-03-14T14:10:38.451Z,2.10
2023-03-14T14:13:12.015Z,2.40
2023-03-14T14:15:45.735Z,2.35
2023-03-14T14:18:22.030Z,2.00
2023-03-14T14:20:48.999Z,2.45
2023-03-14T14:23:28.031Z,2.05
2023-03-14T14:25:55.674Z,1.95
2023-03-14T14:28:35.066Z,1.85
2023-03-14T14:31:11.109Z,2.08
2023-03-14T14:33:57.885Z,1.85
2023-03-14T14:36:47.072Z,1.77
2023-03-14T14:39:25.795Z,2.30
2023-03-14T14:42:00.067Z,1.80
2023-03-14T14:44:33.047Z,1.77
2023-03-14T14:47:00.044Z,2.03
2023-03-14T14:49:38.107Z,1.70
2023-03-14T14:52:18.013Z,1.92
2023-03-14T14:54:58.102Z,1.70
2023-03-14T14:57:32.622Z,2.17
2023-03-14T15:00:12.046Z,3.40
2023-03-14T15:02:41.490Z,2.20
2023-03-14T15:05:30.050Z,2.17
2023-03-14T15:07:57.018Z,2.05
2023-03-14T15:10:25.441Z,2.00
2023-03-14T15:12:59.055Z,1.85
2023-03-14T15:15:25.948Z,1.60
2023-03-14T15:17:52.874Z,1.70
2023-03-14T15:20:26.077Z,1.88
2023-03-14T15:22:53.385Z,1.90
2023-03-14T15:25:51.484Z,2.00
2023-03-14T15:28:27.686Z,2.15
2023-03-14T15:31:03.029Z,1.70
2023-03-14T15:33:31.169Z,2.10
2023-03-14T15:36:07.994Z,2.10
2023-03-14T15:38:34.925Z,1.55
2023-03-14T15:41:01.838Z,2.08
2023-03-14T15:43:35.151Z,1.33
2023-03-14T15:46:08.209Z,1.75
2023-03-14T15:48:35.129Z,1.63
2023-03-14T15:51:02.013Z,1.30
2023-03-14T15:53:35.073Z,1.48
2023-03-14T15:56:01.965Z,1.02
2023-03-14T15:58:35.086Z,1.20
2023-03-14T16:01:02.998Z,1.17
2023-03-14T16:03:37.048Z,1.80
2023-03-14T16:06:04.811Z,1.50
2023-03-14T16:08:38.026Z,1.20
2023-03-14T16:11:12.142Z,1.05
2023-03-14T16:13:39.152Z,1.30
2023-03-14T16:16:13.105Z,1.40
2023-03-14T16:18:47.092Z,1.00
2023-03-14T16:21:17.373Z,1.10
2023-03-14T16:23:44.521Z,1.30
2023-03-14T16:26:21.114Z,1.35
2023-03-14T16:28:48.276Z,1.50
2023-03-14T16:31:24.118Z,1.40
2023-03-14T16:33:51.028Z,3.40
2023-03-14T16:36:24.233Z,3.22
2023-03-14T16:38:51.142Z,2.50
2023-03-14T16:41:26.127Z,2.35
2023-03-14T16:43:53.025Z,2.40
2023-03-14T16:46:27.296Z,2.80
2023-03-14T16:48:54.489Z,2.78
2023-03-14T16:51:21.423Z,3.20
2023-03-14T16:54:01.173Z,3.80
2023-03-14T16:56:28.072Z,8.60
2023-03-14T16:58:55.034Z,4.90
2023-03-14T17:01:29.152Z,3.30
2023-03-14T17:03:56.140Z,3.08
2023-03-14T17:06:28.178Z,2.90
2023-03-14T17:09:02.107Z,2.33
2023-03-14T17:11:29.022Z,3.00
2023-03-14T17:14:04.153Z,2.78
2023-03-14T17:16:31.469Z,2.65
2023-03-14T17:19:05.115Z,3.20
2023-03-14T17:21:38.129Z,2.80
2023-03-14T17:24:05.191Z,3.90
2023-03-14T17:26:39.128Z,4.18
2023-03-14T17:29:06.082Z,5.00
2023-03-14T17:31:39.257Z,7.25
2023-03-14T17:34:06.267Z,10.43
2023-03-14T17:36:40.114Z,8.32
2023-03-14T17:39:07.128Z,6.75
2023-03-14T17:41:40.134Z,8.07
2023-03-14T17:44:07.054Z,9.25
2023-03-14T17:46:40.201Z,8.98
2023-03-14T17:49:13.165Z,9.80
2023-03-14T17:51:40.278Z,6.45
2023-03-14T17:54:14.181Z,5.75
2023-03-14T17:56:41.146Z,5.47
2023-03-14T17:59:08.080Z,4.55
2023-03-14T18:01:41.254Z,4.20
2023-03-14T18:04:08.670Z,4.05
2023-03-14T18:06:35.714Z,3.85
2023-03-14T18:09:09.193Z,3.97
2023-03-14T18:11:36.175Z,3.92
2023-03-14T18:14:09.171Z,3.75
2023-03-14T18:16:36.232Z,3.78
2023-03-14T18:19:10.204Z,11.85
2023-03-14T18:21:37.098Z,21.58
2023-03-14T18:24:11.141Z,26.05
2023-03-14T18:26:38.302Z,23.58
2023-03-14T18:29:12.194Z,22.48
2023-03-14T18:31:45.232Z,19.40
2023-03-14T18:34:19.182Z,17.45
2023-03-14T18:36:52.182Z,16.83
2023-03-14T18:39:25.170Z,15.98
2023-03-14T18:41:52.072Z,14.63
2023-03-14T18:44:26.190Z,12.30
2023-03-14T18:46:53.178Z,8.68
2023-03-14T18:49:26.331Z,5.65
2023-03-14T18:52:00.210Z,4.97
2023-03-14T18:54:33.293Z,4.95
2023-03-14T18:57:00.302Z,4.28
2023-03-14T18:59:34.293Z,3.90
2023-03-14T19:02:01.250Z,3.40
2023-03-14T19:04:35.228Z,3.55
2023-03-14T19:07:08.217Z,3.33
2023-03-14T19:09:35.219Z,3.55
2023-03-14T19:12:08.228Z,3.90
2023-03-14T19:14:42.248Z,3.20
2023-03-14T19:17:16.197Z,11.18
2023-03-14T19:19:43.372Z,26.33
2023-03-14T19:22:17.208Z,27.27
2023-03-14T19:24:44.184Z,23.25
2023-03-14T19:27:17.252Z,16.95
2023-03-14T19:29:44.235Z,16.38
2023-03-14T19:32:25.229Z,14.73
2023-03-14T19:34:52.312Z,12.85
2023-03-14T19:37:26.235Z,8.45
2023-03-14T19:39:53.286Z,6.68
2023-03-14T19:42:20.343Z,5.20
2023-03-14T19:44:54.253Z,4.18
2023-03-14T19:47:21.137Z,4.38
2023-03-14T19:49:54.229Z,4.40
2023-03-14T19:52:21.225Z,6.05
2023-03-14T19:54:55.171Z,5.63
2023-03-14T19:57:22.114Z,4.97
2023-03-14T19:59:55.258Z,5.28
2023-03-14T20:02:22.311Z,5.55
2023-03-14T20:04:56.273Z,6.10
2023-03-14T20:07:23.245Z,12.38
2023-03-14T20:09:56.296Z,7.82
2023-03-14T20:12:30.244Z,7.03
2023-03-14T20:14:57.313Z,7.90
2023-03-14T20:17:31.337Z,12.23
2023-03-14T20:19:58.342Z,9.13
2023-03-14T20:22:32.278Z,7.45
2023-03-14T20:25:00.186Z,8.70
2023-03-14T20:27:34.284Z,8.10
2023-03-14T20:30:01.271Z,7.45
2023-03-14T20:32:35.307Z,7.18
2023-03-14T20:35:09.304Z,8.05
2023-03-14T20:37:43.269Z,5.65
2023-03-14T20:40:11.473Z,6.15
2023-03-14T20:42:38.541Z,6.40
2023-03-14T20:45:13.352Z,11.73
2023-03-14T20:47:40.401Z,15.18
2023-03-14T20:50:15.334Z,17.38
2023-03-14T20:52:42.456Z,17.77
2023-03-14T20:55:16.346Z,14.32
2023-03-14T20:57:43.328Z,13.85
2023-03-14T21:00:11.229Z,15.65
2023-03-14T21:02:44.303Z,12.60
2023-03-14T21:05:11.401Z,8.73
2023-03-14T21:07:45.338Z,7.50
2023-03-14T21:10:19.291Z,16.45
2023-03-14T21:12:52.757Z,30.50
2023-03-14T21:15:19.652Z,26.60
2023-03-14T21:17:53.259Z,20.80
2023-03-14T21:20:20.417Z,14.88
2023-03-14T21:22:47.334Z,14.45
2023-03-14T21:25:21.258Z,14.60
2023-03-14T21:28:01.271Z,13.85
2023-03-14T21:30:35.269Z,8.52
2023-03-14T21:33:02.353Z,8.57
2023-03-14T21:35:36.500Z,5.68
2023-03-14T21:38:03.513Z,3.15
2023-03-14T21:40:37.328Z,2.67
2023-03-14T21:43:05.103Z,5.40
2023-03-14T21:45:38.249Z,6.88
2023-03-14T21:48:05.375Z,6.13
2023-03-14T21:50:32.492Z,5.93
2023-03-14T21:53:06.275Z,5.10
2023-03-14T21:55:39.287Z,3.72
2023-03-14T21:58:06.261Z,3.38
2023-03-14T22:00:39.329Z,3.15
2023-03-14T22:03:13.795Z,3.33
2023-03-14T22:05:53.290Z,3.42
2023-03-14T22:08:20.360Z,4.13
2023-03-14T22:10:56.284Z,5.50
2023-03-14T22:13:24.234Z,5.60
2023-03-14T22:15:51.398Z,5.15
2023-03-14T22:18:25.392Z,4.80
2023-03-14T22:20:52.353Z,6.90
2023-03-14T22:23:25.361Z,8.23
2023-03-14T22:25:52.300Z,9.88
2023-03-14T22:28:19.251Z,7.68
2023-03-14T22:30:56.285Z,7.60
2023-03-14T22:33:30.313Z,6.75
2023-03-14T22:35:57.267Z,7.65
2023-03-14T22:38:31.337Z,9.30
2023-03-14T22:41:02.455Z,5.63
2023-03-14T22:43:36.395Z,4.35
2023-03-14T22:46:12.347Z,3.85
2023-03-14T22:48:45.308Z,3.22
2023-03-14T22:51:13.499Z,3.35
2023-03-14T22:53:47.314Z,3.97
2023-03-14T22:56:20.318Z,5.50
2023-03-14T22:58:47.364Z,4.28
2023-03-14T23:01:39.283Z,4.13
2023-03-14T23:04:12.613Z,3.75
2023-03-14T23:06:46.320Z,3.50
2023-03-14T23:09:19.371Z,4.32
2023-03-14T23:11:53.355Z,6.45
2023-03-14T23:14:20.311Z,5.93
2023-03-14T23:16:53.402Z,6.25
2023-03-14T23:19:20.396Z,5.80
2023-03-14T23:21:54.319Z,5.38
2023-03-14T23:24:21.514Z,5.80
2023-03-14T23:26:55.339Z,5.40
2023-03-14T23:29:22.322Z,4.82
2023-03-14T23:31:55.332Z,4.78
2023-03-14T23:34:22.281Z,4.03
2023-03-14T23:36:55.312Z,3.72
2023-03-14T23:39:28.337Z,3.90
2023-03-14T23:41:55.269Z,3.33
2023-03-14T23:44:28.415Z,3.35
2023-03-14T23:46:55.333Z,3.20
2023-03-14T23:49:28.335Z,3.22
2023-03-14T23:52:02.351Z,3.67
2023-03-14T23:54:29.329Z,4.57
2023-03-14T23:56:56.517Z,4.28
2023-03-14T23:59:30.358Z,3.60
